Time;durP1;ratioP1;P1;durP2;ratioP2;P2;SDS_P1;SDS_P2;PMS_P1;PMS_P2;Temp;Humidity;BMP_temperature;BMP_pressure;BME280_temperature;BME280_humidity;BME280_pressure;Samples;Min_cycle;Max_cycle;Signal;HPM_P1;HPM_P2
2022/12/28 00:02:22;;;;;;;11.25;3.08;;;5.70;99.90;;;;;;4968542;28;20400;-77
2022/12/28 00:04:48;;;;;;;5.05;3.28;;;5.70;99.90;;;;;;4968405;28;20047;-79
2022/12/28 00:07:14;;;;;;;5.93;4.05;;;5.70;99.90;;;;;;4967582;28;20454;-77
2022/12/28 00:09:39;;;;;;;6.88;4.25;;;5.70;99.90;;;;;;4967913;28;20094;-77
2022/12/28 00:12:05;;;;;;;4.35;3.15;;;5.70;99.90;;;;;;4968295;28;20517;-77
2022/12/28 00:14:31;;;;;;;4.68;3.10;;;5.70;99.90;;;;;;4968079;28;20107;-77
2022/12/28 00:16:56;;;;;;;3.83;3.42;;;5.80;99.90;;;;;;4967644;28;20035;-77
2022/12/28 00:19:22;;;;;;;4.45;3.10;;;5.80;99.90;;;;;;4968503;28;20089;-77
2022/12/28 00:21:47;;;;;;;6.57;4.82;;;5.70;99.90;;;;;;4969061;28;20413;-76
2022/12/28 00:24:21;;;;;;;8.25;3.97;;;5.80;99.90;;;;;;4967830;28;20137;-77
2022/12/28 00:26:47;;;;;;;4.72;2.97;;;5.80;99.90;;;;;;4961833;28;20047;-77
2022/12/28 00:29:13;;;;;;;5.18;3.85;;;5.80;99.90;;;;;;4947804;29;20042;-77
2022/12/28 00:31:38;;;;;;;6.70;3.90;;;5.80;99.90;;;;;;4948930;28;20418;-77
2022/12/28 00:34:04;;;;;;;10.27;4.70;;;5.80;99.90;;;;;;4948942;29;20546;-77
2022/12/28 00:36:31;;;;;;;5.05;3.53;;;5.90;99.90;;;;;;4948603;29;20162;-77
2022/12/28 00:38:56;;;;;;;5.75;3.58;;;5.80;99.90;;;;;;4966737;28;20046;-77
2022/12/28 00:41:22;;;;;;;8.35;5.20;;;5.90;99.90;;;;;;4967631;28;20034;-77
2022/12/28 00:43:48;;;;;;;11.82;4.30;;;5.80;99.90;;;;;;4968334;28;20078;-77
2022/12/28 00:46:13;;;;;;;5.90;3.42;;;5.90;99.90;;;;;;4965418;28;20406;-78
2022/12/28 00:48:39;;;;;;;6.35;4.82;;;5.90;99.90;;;;;;4967227;28;20042;-77
2022/12/28 00:51:08;;;;;;;5.53;3.88;;;5.90;99.90;;;;;;4967327;28;20047;-77
2022/12/28 00:53:33;;;;;;;5.90;3.78;;;5.90;99.90;;;;;;4982587;28;20109;-77
2022/12/28 00:56:07;;;;;;;5.13;4.07;;;5.90;99.90;;;;;;4965969;28;20042;-77
2022/12/28 00:58:34;;;;;;;8.38;4.80;;;5.90;99.90;;;;;;4967245;28;20116;-78
2022/12/28 01:00:59;;;;;;;7.50;5.07;;;5.90;99.90;;;;;;4966223;28;20047;-77
2022/12/28 01:03:25;;;;;;;6.63;4.22;;;5.90;99.90;;;;;;4967409;28;20070;-77
2022/12/28 01:05:51;;;;;;;7.90;5.13;;;5.90;99.90;;;;;;4965735;28;20142;-77
2022/12/28 01:08:16;;;;;;;8.43;4.97;;;5.90;99.90;;;;;;4950589;28;20045;-77
2022/12/28 01:10:42;;;;;;;6.97;4.95;;;5.90;99.90;;;;;;4967504;28;20379;-76
2022/12/28 01:13:07;;;;;;;7.18;4.00;;;5.90;99.90;;;;;;4965777;28;20047;-77
2022/12/28 01:15:33;;;;;;;6.68;4.95;;;5.90;99.90;;;;;;4965869;28;20085;-77
2022/12/28 01:17:58;;;;;;;8.05;4.90;;;5.90;99.90;;;;;;4965618;28;20047;-77
2022/12/28 01:20:24;;;;;;;15.30;5.07;;;6.00;99.90;;;;;;4967268;28;20051;-77
2022/12/28 01:22:50;;;;;;;5.78;4.50;;;6.00;99.90;;;;;;4967009;28;20045;-77
2022/12/28 01:25:15;;;;;;;9.13;4.88;;;6.00;99.90;;;;;;4967708;28;20053;-78
2022/12/28 01:27:41;;;;;;;5.78;4.55;;;6.00;99.90;;;;;;4959662;28;20441;-77
2022/12/28 01:30:07;;;;;;;8.63;5.45;;;6.00;99.90;;;;;;4966090;28;20065;-77
2022/12/28 01:32:33;;;;;;;9.10;5.90;;;6.00;99.90;;;;;;4967123;28;20047;-77
2022/12/28 01:34:58;;;;;;;11.90;4.45;;;6.00;99.90;;;;;;4966860;28;20055;-76
2022/12/28 01:37:24;;;;;;;10.40;5.50;;;6.00;99.90;;;;;;4967133;28;20043;-78
2022/12/28 01:39:49;;;;;;;10.02;6.78;;;6.00;99.90;;;;;;4966923;28;20525;-77
2022/12/28 01:42:18;;;;;;;7.90;5.13;;;6.00;99.90;;;;;;4967407;28;20061;-78
2022/12/28 01:44:46;;;;;;;9.18;7.03;;;6.00;99.90;;;;;;4981157;28;20126;-77
2022/12/28 01:47:16;;;;;;;7.30;5.07;;;6.00;99.90;;;;;;4966720;28;20045;-77
2022/12/28 01:49:47;;;;;;;13.23;6.00;;;6.00;99.90;;;;;;4966811;28;20409;-77
2022/12/28 01:52:18;;;;;;;7.63;5.93;;;6.00;99.90;;;;;;4965460;28;20109;-77
2022/12/28 01:55:01;;;;;;;7.57;5.70;;;6.00;99.90;;;;;;4967079;28;20130;-77
2022/12/28 01:57:30;;;;;;;10.15;6.18;;;6.10;99.90;;;;;;4964988;28;20090;-77
2022/12/28 02:00:01;;;;;;;6.32;5.07;;;6.10;99.90;;;;;;4946653;28;20075;-77
2022/12/28 02:02:28;;;;;;;9.18;6.75;;;6.10;99.90;;;;;;4947803;28;20035;-77
2022/12/28 02:04:54;;;;;;;8.20;6.50;;;6.10;99.90;;;;;;4946097;29;20117;-76
2022/12/28 02:07:36;;;;;;;9.05;6.45;;;6.10;99.90;;;;;;4947310;29;20039;-78
2022/12/28 02:10:03;;;;;;;12.18;7.35;;;6.10;99.90;;;;;;4964264;28;20051;-78
2022/12/28 02:12:29;;;;;;;10.48;6.47;;;6.10;99.90;;;;;;4965595;28;20126;-77
2022/12/28 02:14:55;;;;;;;11.60;5.88;;;6.10;99.90;;;;;;4965327;28;20080;-77
2022/12/28 02:17:21;;;;;;;10.55;7.03;;;6.10;99.90;;;;;;4967428;28;20050;-77
2022/12/28 02:19:48;;;;;;;14.90;6.43;;;6.10;99.90;;;;;;4967365;28;20165;-77
2022/12/28 02:22:19;;;;;;;10.95;5.85;;;6.10;99.90;;;;;;4966029;28;20051;-77
2022/12/28 02:25:22;;;;;;;9.98;6.40;;;6.10;99.90;;;;;;4967453;28;20047;-77
2022/12/28 02:28:11;;;;;;;8.20;6.35;;;6.10;99.90;;;;;;4967741;28;20061;-77
2022/12/28 02:30:46;;;;;;;11.00;7.88;;;6.10;99.90;;;;;;4968286;28;20502;-77
2022/12/28 02:33:22;;;;;;;13.13;6.90;;;6.10;99.90;;;;;;4970228;28;20055;-78
2022/12/28 02:35:56;;;;;;;10.93;8.32;;;6.10;99.90;;;;;;4971409;28;20421;-77
2022/12/28 02:38:28;;;;;;;9.00;7.22;;;6.10;99.90;;;;;;4970376;28;20494;-77
2022/12/28 02:41:00;;;;;;;7.78;6.75;;;6.10;99.90;;;;;;4970318;28;20504;-76
2022/12/28 02:43:25;;;;;;;9.05;7.63;;;6.20;99.90;;;;;;4970691;28;20047;-77
2022/12/28 02:51:48;;;;;;;12.60;8.13;;;6.20;99.90;;;;;;4970180;28;20078;-77
2022/12/28 02:57:46;;;;;;;10.10;7.60;;;6.20;99.90;;;;;;5160645;23;20583;-77
2022/12/28 03:00:19;;;;;;;12.98;7.35;;;6.20;99.90;;;;;;4960466;28;20147;-77
2022/12/28 03:02:51;;;;;;;8.50;6.85;;;6.20;99.90;;;;;;4968835;28;20050;-77
2022/12/28 03:08:52;;;;;;;14.85;8.15;;;6.20;99.90;;;;;;4969548;28;20556;-76
2022/12/28 03:11:22;;;;;;;18.17;8.43;;;6.20;99.90;;;;;;4968462;28;20478;-77
2022/12/28 03:14:01;;;;;;;11.68;7.50;;;6.20;99.90;;;;;;4968998;28;20046;-76
2022/12/28 03:25:41;;;;;;;9.85;8.10;;;6.20;99.90;;;;;;4968241;28;20057;-76
2022/12/28 03:33:25;;;;;;;12.63;9.23;;;6.30;99.90;;;;;;4949095;29;20102;-77
2022/12/28 03:35:58;;;;;;;18.27;9.55;;;6.30;99.90;;;;;;4948482;29;20051;-77
2022/12/28 03:38:30;;;;;;;13.93;10.88;;;6.30;99.90;;;;;;4949380;28;20063;-76
2022/12/28 03:41:06;;;;;;;14.07;9.60;;;6.30;99.90;;;;;;4950085;28;20059;-78
2022/12/28 03:43:42;;;;;;;21.13;10.52;;;6.30;99.90;;;;;;4948390;29;20035;-78
2022/12/28 03:46:12;;;;;;;12.98;10.30;;;6.30;99.90;;;;;;4955623;28;20050;-77
2022/12/28 03:48:38;;;;;;;15.68;10.45;;;6.30;99.90;;;;;;4968009;28;20046;-77
2022/12/28 03:51:04;;;;;;;15.73;9.85;;;6.40;99.90;;;;;;4968788;28;20104;-78
2022/12/28 03:53:38;;;;;;;16.35;11.00;;;6.40;99.90;;;;;;4967998;28;20039;-76
2022/12/28 03:56:15;;;;;;;14.63;10.52;;;6.30;99.90;;;;;;4968601;28;20043;-76
2022/12/28 03:58:41;;;;;;;13.45;10.60;;;6.40;99.90;;;;;;4967279;28;20047;-77
2022/12/28 04:01:07;;;;;;;16.58;12.95;;;6.40;99.90;;;;;;4967490;28;20046;-77
2022/12/28 04:03:33;;;;;;;15.68;10.70;;;6.40;99.90;;;;;;4969093;28;20051;-77
2022/12/28 04:05:59;;;;;;;11.45;10.25;;;6.40;99.90;;;;;;4968815;28;20051;-76
2022/12/28 04:08:25;;;;;;;14.45;10.40;;;6.40;99.90;;;;;;4967144;28;20043;-77
2022/12/28 04:10:51;;;;;;;17.40;11.60;;;6.50;99.90;;;;;;4967996;28;20489;-76
2022/12/28 04:13:17;;;;;;;12.18;9.48;;;6.40;99.90;;;;;;4968500;28;20049;-77
2022/12/28 04:15:42;;;;;;;16.20;10.93;;;6.50;99.90;;;;;;4967808;28;20049;-77
2022/12/28 04:18:08;;;;;;;14.77;9.80;;;6.50;99.90;;;;;;4967007;28;20142;-77
2022/12/28 04:20:33;;;;;;;14.75;8.57;;;6.50;99.90;;;;;;4968450;28;20097;-77
2022/12/28 04:22:59;;;;;;;13.02;9.88;;;6.50;99.90;;;;;;4968269;28;20039;-77
2022/12/28 04:25:26;;;;;;;16.25;10.70;;;6.50;99.90;;;;;;4968402;28;20077;-76
2022/12/28 04:27:51;;;;;;;12.63;10.02;;;6.50;99.90;;;;;;4968117;28;20109;-77
2022/12/28 04:30:17;;;;;;;15.95;11.57;;;6.60;99.90;;;;;;4968022;28;20046;-76
2022/12/28 04:32:42;;;;;;;14.35;10.65;;;6.60;99.90;;;;;;4968651;28;20487;-76
2022/12/28 04:35:08;;;;;;;14.15;9.63;;;6.60;99.90;;;;;;4966944;28;20042;-77
2022/12/28 04:37:37;;;;;;;15.73;12.32;;;6.60;99.90;;;;;;4966921;28;20624;-76
2022/12/28 04:40:03;;;;;;;13.25;10.32;;;6.60;99.90;;;;;;4967229;28;20043;-78
2022/12/28 04:42:28;;;;;;;16.85;11.00;;;6.60;99.90;;;;;;4966698;28;20121;-77
2022/12/28 04:44:54;;;;;;;21.98;10.73;;;6.60;99.90;;;;;;4967177;28;20090;-77
2022/12/28 04:47:19;;;;;;;14.68;10.50;;;6.70;99.90;;;;;;4968220;28;20074;-77
2022/12/28 04:49:45;;;;;;;20.27;10.27;;;6.70;99.90;;;;;;4968111;28;20034;-77
2022/12/28 04:52:11;;;;;;;14.73;9.57;;;6.70;99.90;;;;;;4967789;28;20074;-77
2022/12/28 04:54:36;;;;;;;16.80;10.93;;;6.70;99.90;;;;;;4966520;28;20050;-76
2022/12/28 04:57:02;;;;;;;14.70;11.43;;;6.80;99.90;;;;;;4967258;28;20062;-76
2022/12/28 04:59:27;;;;;;;20.00;11.32;;;6.80;99.90;;;;;;4967195;28;20113;-77
2022/12/28 05:01:53;;;;;;;19.85;10.98;;;6.80;99.90;;;;;;4966249;28;20042;-77
2022/12/28 05:04:18;;;;;;;19.73;10.93;;;6.80;99.90;;;;;;4967998;28;20078;-78
2022/12/28 05:06:44;;;;;;;13.73;10.65;;;6.90;99.90;;;;;;4966966;28;20058;-76
2022/12/28 05:09:10;;;;;;;13.20;10.48;;;6.90;99.90;;;;;;4967301;28;20054;-78
2022/12/28 05:11:35;;;;;;;18.73;9.20;;;6.90;99.90;;;;;;4966165;28;20055;-77
2022/12/28 05:14:01;;;;;;;17.83;12.23;;;7.00;99.90;;;;;;4966802;28;20401;-77
2022/12/28 05:16:27;;;;;;;19.83;10.43;;;7.10;99.90;;;;;;4967432;28;20537;-77
2022/12/28 05:18:55;;;;;;;14.10;10.15;;;7.20;99.90;;;;;;4967721;28;20050;-77
2022/12/28 05:21:23;;;;;;;17.17;12.15;;;7.20;99.90;;;;;;4967471;28;20071;-77
2022/12/28 05:23:49;;;;;;;22.55;11.57;;;7.20;99.90;;;;;;4967243;28;20082;-78
2022/12/28 05:26:20;;;;;;;15.57;11.35;;;7.20;99.90;;;;;;4967715;28;20125;-76
2022/12/28 05:28:46;;;;;;;15.25;11.45;;;7.30;99.90;;;;;;4965040;28;20050;-77
2022/12/28 05:31:14;;;;;;;24.23;11.25;;;7.30;99.90;;;;;;4966061;28;20078;-77
2022/12/28 05:33:41;;;;;;;24.02;11.77;;;7.30;99.90;;;;;;4967571;28;20043;-76
2022/12/28 05:36:15;;;;;;;16.65;11.77;;;7.40;99.90;;;;;;4967062;28;20058;-77
2022/12/28 05:38:41;;;;;;;15.02;10.38;;;7.40;99.90;;;;;;4967084;28;20121;-77
2022/12/28 05:41:12;;;;;;;21.08;11.52;;;7.40;99.90;;;;;;4967250;28;20035;-77
2022/12/28 05:43:38;;;;;;;14.85;10.93;;;7.40;99.90;;;;;;4965036;28;20043;-77
2022/12/28 05:46:06;;;;;;;19.58;9.93;;;7.40;99.90;;;;;;4967003;28;20038;-77
2022/12/28 05:48:34;;;;;;;16.88;11.15;;;7.40;99.90;;;;;;4966206;28;20062;-77
2022/12/28 05:51:09;;;;;;;16.75;9.15;;;7.50;99.90;;;;;;4967003;28;20042;-77
2022/12/28 05:53:36;;;;;;;21.00;10.68;;;7.50;99.90;;;;;;4967442;28;20050;-77
2022/12/28 05:56:07;;;;;;;15.98;10.18;;;7.50;99.90;;;;;;4966301;28;20429;-76
2022/12/28 05:58:33;;;;;;;14.03;9.83;;;7.50;99.90;;;;;;4964831;28;20055;-77
2022/12/28 06:01:19;;;;;;;14.52;8.85;;;7.50;99.90;;;;;;4966857;28;20279;-77
2022/12/28 06:03:46;;;;;;;17.10;8.43;;;7.50;99.90;;;;;;4970600;28;20054;-76
2022/12/28 06:06:17;;;;;;;17.40;10.93;;;7.60;99.90;;;;;;4970709;28;20485;-76
2022/12/28 06:08:44;;;;;;;21.25;8.70;;;7.60;99.90;;;;;;4971128;28;20050;-77
2022/12/28 06:11:12;;;;;;;14.57;8.80;;;7.60;99.90;;;;;;4970528;28;20125;-76
2022/12/28 06:13:37;;;;;;;12.90;9.75;;;7.60;99.90;;;;;;4970081;28;20106;-76
2022/12/28 06:16:09;;;;;;;13.77;9.07;;;7.60;99.90;;;;;;4970245;28;20615;-77
2022/12/28 06:18:35;;;;;;;14.37;9.00;;;7.70;99.90;;;;;;4970817;28;20135;-77
2022/12/28 06:21:06;;;;;;;21.05;9.85;;;7.70;99.90;;;;;;4970575;28;20051;-77
2022/12/28 06:23:31;;;;;;;16.50;9.35;;;7.70;99.90;;;;;;4970562;28;20042;-77
2022/12/28 06:26:02;;;;;;;16.25;9.63;;;7.70;99.90;;;;;;4968833;28;20078;-76
2022/12/28 06:28:28;;;;;;;14.40;9.57;;;7.70;99.90;;;;;;4949507;29;20047;-76
2022/12/28 06:31:05;;;;;;;17.23;8.30;;;7.70;99.90;;;;;;4950745;28;20046;-77
2022/12/28 06:33:31;;;;;;;16.98;9.32;;;7.80;99.90;;;;;;4949887;29;20054;-77
2022/12/28 06:35:56;;;;;;;26.20;10.18;;;7.80;99.90;;;;;;4950733;28;20047;-77
2022/12/28 06:38:22;;;;;;;15.55;9.52;;;7.80;99.90;;;;;;4951214;29;20736;-77
2022/12/28 06:40:48;;;;;;;18.85;10.13;;;7.80;99.90;;;;;;4951406;28;20472;-76
2022/12/28 06:43:13;;;;;;;15.30;9.18;;;7.80;99.90;;;;;;4950367;29;20094;-77
2022/12/28 06:45:39;;;;;;;18.77;9.15;;;7.80;99.90;;;;;;4967564;28;20053;-76
2022/12/28 06:48:05;;;;;;;18.33;10.73;;;7.90;99.90;;;;;;4969945;28;20072;-78
2022/12/28 06:50:30;;;;;;;20.25;10.38;;;7.90;99.90;;;;;;4970288;28;20046;-77
2022/12/28 06:52:56;;;;;;;14.25;8.82;;;7.90;99.90;;;;;;4969976;28;20043;-76
2022/12/28 06:55:21;;;;;;;25.90;10.23;;;7.90;99.90;;;;;;4969857;28;20071;-77
2022/12/28 06:57:47;;;;;;;13.55;8.20;;;7.90;99.90;;;;;;4969900;28;20082;-77
2022/12/28 07:00:13;;;;;;;19.40;8.05;;;7.90;99.90;;;;;;4969219;28;20057;-78
2022/12/28 07:02:38;;;;;;;20.27;8.93;;;7.90;99.90;;;;;;4969482;28;20043;-77
2022/12/28 07:05:04;;;;;;;20.02;9.40;;;7.90;99.90;;;;;;4968212;28;20046;-77
2022/12/28 07:07:29;;;;;;;22.48;10.32;;;8.00;99.90;;;;;;4969695;28;20118;-76
2022/12/28 07:09:55;;;;;;;16.90;10.40;;;7.90;99.90;;;;;;4969606;28;20046;-76
2022/12/28 07:12:21;;;;;;;25.08;8.75;;;8.00;99.90;;;;;;4969607;28;20043;-77
2022/12/28 07:14:46;;;;;;;14.45;8.35;;;8.00;99.90;;;;;;4968929;28;20039;-77
2022/12/28 07:17:12;;;;;;;22.80;7.93;;;8.00;99.90;;;;;;4968190;28;20050;-76
2022/12/28 07:19:37;;;;;;;14.15;8.48;;;7.90;99.90;;;;;;4969628;28;20409;-76
2022/12/28 07:22:03;;;;;;;17.02;7.80;;;8.00;99.90;;;;;;4969516;28;20122;-77
2022/12/28 07:24:28;;;;;;;21.85;6.75;;;8.00;99.90;;;;;;4969694;28;20049;-77
2022/12/28 07:26:54;;;;;;;20.95;8.57;;;8.00;99.90;;;;;;4979396;28;20529;-77
2022/12/28 07:29:20;;;;;;;14.65;7.85;;;8.00;99.90;;;;;;4968977;28;20125;-78
2022/12/28 07:31:45;;;;;;;18.85;7.50;;;8.00;99.90;;;;;;4969328;28;20085;-77
2022/12/28 07:34:12;;;;;;;25.13;7.43;;;8.00;99.90;;;;;;4969030;28;20070;-76
2022/12/28 07:36:38;;;;;;;16.13;7.32;;;8.00;99.90;;;;;;4969227;28;20676;-77
2022/12/28 07:39:04;;;;;;;13.55;7.68;;;8.00;99.90;;;;;;4968967;28;20047;-77
2022/12/28 07:41:34;;;;;;;19.08;8.43;;;8.00;99.90;;;;;;4968854;28;20042;-78
2022/12/28 07:44:01;;;;;;;19.48;7.90;;;8.00;99.90;;;;;;4968508;28;20050;-77
2022/12/28 07:46:29;;;;;;;13.98;7.20;;;8.10;99.90;;;;;;4968798;28;20038;-77
2022/12/28 07:48:56;;;;;;;15.23;6.88;;;8.10;99.90;;;;;;4968633;28;20560;-77
2022/12/28 07:51:23;;;;;;;20.55;8.73;;;8.10;99.90;;;;;;4969368;28;20105;-77
2022/12/28 07:53:50;;;;;;;11.57;6.75;;;8.10;99.90;;;;;;4969164;28;20072;-80
2022/12/28 07:56:17;;;;;;;7.68;5.45;;;8.10;99.90;;;;;;4968847;28;20401;-77
2022/12/28 07:58:48;;;;;;;10.55;7.28;;;8.10;99.90;;;;;;4966854;28;20141;-77
2022/12/28 08:01:16;;;;;;;12.20;6.47;;;8.10;99.90;;;;;;4969412;28;20047;-78
2022/12/28 08:03:42;;;;;;;15.45;6.80;;;8.10;99.90;;;;;;4968224;28;20031;-77
2022/12/28 08:06:10;;;;;;;13.77;7.30;;;8.10;99.90;;;;;;4968230;28;20517;-78
2022/12/28 08:08:37;;;;;;;20.38;8.27;;;8.10;99.90;;;;;;4967396;28;20444;-77
2022/12/28 08:11:06;;;;;;;13.20;7.13;;;8.00;99.90;;;;;;4968652;28;20118;-77
2022/12/28 08:13:36;;;;;;;11.52;5.90;;;8.10;99.90;;;;;;4967847;28;20078;-77
2022/12/28 08:16:02;;;;;;;18.05;5.97;;;8.10;99.90;;;;;;4967495;28;20122;-77
2022/12/28 08:18:29;;;;;;;19.90;7.28;;;8.10;99.90;;;;;;4968310;28;20054;-78
2022/12/28 08:20:58;;;;;;;7.90;5.50;;;8.10;99.90;;;;;;4967933;28;20039;-77
2022/12/28 08:23:24;;;;;;;14.15;5.68;;;8.10;99.90;;;;;;4968328;28;20413;-78
2022/12/28 08:25:50;;;;;;;7.05;2.67;;;8.10;99.90;;;;;;4965731;28;20039;-78
2022/12/28 08:28:15;;;;;;;7.03;3.65;;;8.20;99.90;;;;;;4949226;28;20151;-77
2022/12/28 08:30:41;;;;;;;9.32;3.85;;;8.20;99.90;;;;;;4947994;29;20545;-77
2022/12/28 08:33:06;;;;;;;7.38;4.63;;;8.20;99.90;;;;;;4948765;28;20052;-77
2022/12/28 08:35:32;;;;;;;7.05;4.35;;;8.20;99.90;;;;;;4948770;29;20039;-77
2022/12/28 08:37:58;;;;;;;6.95;5.07;;;8.20;99.90;;;;;;4948614;29;20044;-77
2022/12/28 08:40:28;;;;;;;15.43;5.63;;;8.20;99.90;;;;;;4948785;29;20190;-77
2022/12/28 08:42:58;;;;;;;11.70;4.85;;;8.10;99.90;;;;;;4950990;28;20038;-78
2022/12/28 08:45:24;;;;;;;7.38;4.50;;;8.10;99.90;;;;;;4968008;28;20051;-77
2022/12/28 08:47:50;;;;;;;6.15;4.38;;;8.10;99.90;;;;;;4965693;28;20058;-77
2022/12/28 08:50:15;;;;;;;12.05;4.40;;;8.10;99.90;;;;;;4966293;28;20045;-78
2022/12/28 08:52:41;;;;;;;6.10;4.03;;;8.10;99.90;;;;;;4967981;28;20042;-77
2022/12/28 08:55:07;;;;;;;4.32;2.63;;;8.10;99.90;;;;;;4977216;28;20132;-78
2022/12/28 08:57:32;;;;;;;8.63;2.95;;;8.10;99.90;;;;;;4970372;28;20509;-79
2022/12/28 08:59:58;;;;;;;7.10;3.20;;;8.10;99.90;;;;;;4960166;28;20486;-77
2022/12/28 09:02:24;;;;;;;3.38;2.05;;;8.10;99.90;;;;;;4961199;28;20050;-77
2022/12/28 09:04:49;;;;;;;8.07;2.83;;;8.10;99.90;;;;;;4954560;28;20043;-78
2022/12/28 09:07:15;;;;;;;3.83;2.17;;;8.10;99.90;;;;;;4966670;28;20070;-78
2022/12/28 09:09:40;;;;;;;3.42;2.53;;;8.10;99.90;;;;;;4968499;28;20101;-77
2022/12/28 09:12:06;;;;;;;7.35;2.50;;;8.10;99.90;;;;;;4960624;28;20046;-77
2022/12/28 09:14:32;;;;;;;3.83;2.83;;;8.10;99.90;;;;;;4946592;29;20055;-81
2022/12/28 09:16:59;;;;;;;5.60;3.03;;;8.10;99.90;;;;;;4950285;28;20549;-78
2022/12/28 09:19:25;;;;;;;3.08;2.78;;;8.10;99.90;;;;;;4967419;28;20493;-78
2022/12/28 09:21:51;;;;;;;5.78;3.25;;;8.10;99.90;;;;;;4965957;28;20129;-76
2022/12/28 09:24:17;;;;;;;5.65;3.45;;;8.10;99.90;;;;;;4968267;28;20102;-76
2022/12/28 09:26:43;;;;;;;5.65;4.13;;;8.10;99.90;;;;;;4967127;28;20043;-76
2022/12/28 09:29:12;;;;;;;7.50;3.58;;;8.20;99.90;;;;;;4966149;28;20043;-76
2022/12/28 09:31:39;;;;;;;7.10;4.45;;;8.20;99.90;;;;;;4966460;28;20588;-76
2022/12/28 09:34:06;;;;;;;5.05;3.92;;;8.30;99.90;;;;;;4966836;28;20061;-76
2022/12/28 09:36:39;;;;;;;5.07;3.17;;;8.30;99.90;;;;;;4966640;28;20047;-77
2022/12/28 09:39:07;;;;;;;3.70;2.72;;;8.30;99.90;;;;;;4965885;28;20050;-76
2022/12/28 09:41:56;;;;;;;4.78;2.42;;;8.40;99.90;;;;;;4965358;28;20043;-76
2022/12/28 09:44:36;;;;;;;3.72;2.00;;;8.40;99.90;;;;;;4955768;28;20051;-77
2022/12/28 09:47:35;;;;;;;4.50;2.00;;;8.40;99.90;;;;;;4963489;28;20077;-76
2022/12/28 09:50:20;;;;;;;3.38;1.55;;;8.50;99.90;;;;;;4964773;28;20051;-76
2022/12/28 09:53:04;;;;;;;3.70;1.60;;;8.50;99.90;;;;;;4981144;28;20149;-77
2022/12/28 09:55:35;;;;;;;2.92;2.28;;;8.50;99.90;;;;;;4947651;28;20047;-77
2022/12/28 09:58:03;;;;;;;2.60;1.75;;;8.60;99.90;;;;;;4964223;28;20058;-77
2022/12/28 10:00:42;;;;;;;4.22;2.42;;;8.60;99.90;;;;;;4963980;28;20118;-77
2022/12/28 10:03:34;;;;;;;4.88;2.92;;;8.50;99.90;;;;;;4963427;28;20050;-77
2022/12/28 10:06:00;;;;;;;4.97;3.05;;;8.60;99.90;;;;;;4967257;28;20043;-77
2022/12/28 10:08:27;;;;;;;6.75;3.22;;;8.50;99.90;;;;;;4967050;28;20109;-78
2022/12/28 10:10:58;;;;;;;8.00;3.90;;;8.60;99.90;;;;;;4948956;28;20036;-77
2022/12/28 10:13:31;;;;;;;6.50;3.95;;;8.60;99.90;;;;;;4947748;28;20043;-77
2022/12/28 10:15:56;;;;;;;9.02;4.65;;;8.60;99.90;;;;;;4969080;28;20078;-78
2022/12/28 10:18:25;;;;;;;6.78;3.55;;;8.50;99.90;;;;;;4966106;28;20057;-77
2022/12/28 10:20:51;;;;;;;4.75;3.50;;;8.60;99.90;;;;;;4965776;28;20485;-80
2022/12/28 10:23:22;;;;;;;6.15;4.13;;;8.60;99.90;;;;;;4967505;28;20078;-77
2022/12/28 10:25:50;;;;;;;6.28;3.75;;;8.60;99.90;;;;;;4966729;28;20121;-77
2022/12/28 10:28:19;;;;;;;7.95;4.63;;;8.50;99.90;;;;;;4962223;28;20047;-77
2022/12/28 10:31:04;;;;;;;8.75;5.55;;;8.60;99.90;;;;;;4975344;28;20038;-78
2022/12/28 10:33:30;;;;;;;10.07;6.72;;;8.50;99.90;;;;;;4964742;28;20039;-81
2022/12/28 10:35:56;;;;;;;8.95;6.97;;;8.60;99.90;;;;;;4960916;28;20054;-81
2022/12/28 10:38:32;;;;;;;10.57;8.00;;;8.50;99.90;;;;;;4957838;28;20689;-84
2022/12/28 10:41:27;;;;;;;15.50;7.53;;;8.50;99.90;;;;;;4965302;28;20046;-82
2022/12/28 10:43:53;;;;;;;14.48;8.98;;;8.50;99.90;;;;;;4958116;28;20081;-84
2022/12/28 10:46:25;;;;;;;12.23;8.60;;;8.60;99.90;;;;;;4958995;28;20623;-84
2022/12/28 10:48:57;;;;;;;15.85;8.88;;;8.60;99.90;;;;;;4966328;28;20121;-85
2022/12/28 10:51:25;;;;;;;13.80;9.90;;;8.60;99.90;;;;;;4965055;28;20034;-91
2022/12/28 10:53:56;;;;;;;16.95;10.32;;;8.60;99.90;;;;;;4969751;28;20483;-84
2022/12/28 10:56:29;;;;;;;17.70;9.32;;;8.60;99.90;;;;;;4970423;28;20050;-83
2022/12/28 10:59:10;;;;;;;13.80;8.70;;;8.60;99.90;;;;;;4968975;28;20141;-81
2022/12/28 11:01:36;;;;;;;11.93;7.95;;;8.70;99.90;;;;;;4955989;28;20114;-84
2022/12/28 11:04:30;;;;;;;14.05;9.13;;;8.70;99.90;;;;;;4967209;28;20705;-87
2022/12/28 11:07:04;;;;;;;21.63;8.85;;;8.70;99.90;;;;;;4960517;28;20051;-87
2022/12/28 11:09:34;;;;;;;13.88;8.55;;;8.70;99.90;;;;;;4968243;28;20047;-80
2022/12/28 11:12:21;;;;;;;14.52;9.75;;;8.70;99.90;;;;;;4959923;28;20413;-80
2022/12/28 11:14:51;;;;;;;14.85;7.97;;;8.70;99.90;;;;;;4961622;28;20046;-86
2022/12/28 11:17:19;;;;;;;15.60;7.93;;;8.70;99.90;;;;;;4964878;28;20050;-81
2022/12/28 11:19:47;;;;;;;14.52;8.43;;;8.70;99.90;;;;;;4970837;28;20065;-81
2022/12/28 11:22:24;;;;;;;12.20;8.45;;;8.70;99.90;;;;;;4969150;28;20047;-82
2022/12/28 11:25:00;;;;;;;10.25;7.65;;;8.70;99.90;;;;;;4962414;28;20457;-87
2022/12/28 11:27:35;;;;;;;7.57;5.40;;;8.70;99.90;;;;;;4958657;28;20129;-88
2022/12/28 11:30:12;;;;;;;21.40;6.22;;;8.60;99.90;;;;;;4962384;28;20038;-84
2022/12/28 11:32:46;;;;;;;10.23;6.28;;;8.60;99.90;;;;;;4953719;28;20047;-78
2022/12/28 11:35:18;;;;;;;8.30;5.78;;;8.60;99.90;;;;;;4960299;28;20086;-79
2022/12/28 11:37:57;;;;;;;9.15;6.05;;;8.60;99.90;;;;;;4959633;28;20051;-79
2022/12/28 11:40:49;;;;;;;10.15;6.50;;;8.60;99.90;;;;;;4965389;28;20053;-79
2022/12/28 11:43:30;;;;;;;9.52;5.50;;;8.60;99.90;;;;;;4969019;28;20038;-78
2022/12/28 11:45:58;;;;;;;6.55;5.50;;;8.60;99.90;;;;;;4959750;28;20054;-79
2022/12/28 11:48:37;;;;;;;10.23;5.00;;;8.60;99.90;;;;;;4968019;28;20070;-76
2022/12/28 11:51:04;;;;;;;6.80;4.43;;;8.60;99.90;;;;;;4969077;28;20054;-78
2022/12/28 11:53:32;;;;;;;10.07;5.28;;;8.60;99.90;;;;;;4969875;28;20085;-78
2022/12/28 11:56:01;;;;;;;7.03;5.70;;;8.60;99.90;;;;;;4983021;28;20477;-78
2022/12/28 11:58:29;;;;;;;6.55;5.18;;;8.60;99.90;;;;;;4986731;28;20051;-78
2022/12/28 12:00:58;;;;;;;7.30;5.15;;;8.60;99.90;;;;;;4984638;28;20046;-78
2022/12/28 12:03:58;;;;;;;6.57;4.78;;;8.60;99.90;;;;;;4969367;28;20386;-77
2022/12/28 12:06:45;;;;;;;6.40;4.22;;;8.70;99.90;;;;;;4969542;28;20047;-78
2022/12/28 12:09:37;;;;;;;9.82;6.65;;;8.60;99.90;;;;;;4957565;28;20073;-78
2022/12/28 12:12:15;;;;;;;6.27;5.00;;;8.60;99.90;;;;;;4968357;28;20046;-78
2022/12/28 12:15:13;;;;;;;6.82;5.45;;;8.60;99.90;;;;;;4978788;28;20305;-78
2022/12/28 12:18:02;;;;;;;7.57;6.18;;;8.60;99.90;;;;;;4968008;28;20066;-77
2022/12/28 12:20:48;;;;;;;7.13;5.32;;;8.60;99.90;;;;;;4984401;28;20146;-79
2022/12/28 12:23:35;;;;;;;6.70;4.60;;;8.60;99.90;;;;;;4958234;28;20046;-80
2022/12/28 12:26:43;;;;;;;7.18;6.28;;;8.60;99.90;;;;;;4981662;28;20128;-78
2022/12/28 12:29:24;;;;;;;7.25;5.40;;;8.60;99.90;;;;;;4948035;28;20121;-79
2022/12/28 12:32:13;;;;;;;7.35;6.22;;;8.60;99.90;;;;;;4966122;28;20054;-78
2022/12/28 12:34:41;;;;;;;10.32;6.90;;;8.60;99.90;;;;;;4968446;28;20082;-80
2022/12/28 12:37:46;;;;;;;7.93;5.72;;;8.70;99.90;;;;;;4966965;28;20047;-78
2022/12/28 12:40:26;;;;;;;7.03;6.18;;;8.60;99.90;;;;;;4967539;28;20054;-78
2022/12/28 12:43:09;;;;;;;7.85;5.72;;;8.60;99.90;;;;;;4953299;28;20048;-80
2022/12/28 12:46:13;;;;;;;11.90;7.07;;;8.60;99.90;;;;;;4966851;28;20186;-79
2022/12/28 12:49:05;;;;;;;7.63;5.50;;;8.60;99.90;;;;;;4966888;28;20054;-79
2022/12/28 12:52:05;;;;;;;7.40;5.72;;;8.60;99.90;;;;;;4950309;28;20126;-81
2022/12/28 12:55:08;;;;;;;8.60;6.05;;;8.60;99.90;;;;;;4963831;28;20109;-79
2022/12/28 12:57:46;;;;;;;;;;;8.60;99.90;;;;;;4947418;28;20051;-80
2022/12/28 13:00:15;;;;;;;7.85;5.50;;;8.60;99.90;;;;;;4958790;28;19926;-78
2022/12/28 13:03:06;;;;;;;8.90;5.45;;;8.60;99.90;;;;;;4967979;28;20239;-79
2022/12/28 13:05:32;;;;;;;10.05;7.13;;;8.60;99.90;;;;;;4977897;28;20052;-79
2022/12/28 13:07:59;;;;;;;10.80;6.65;;;8.60;99.90;;;;;;4966203;28;20043;-80
2022/12/28 13:10:36;;;;;;;8.63;6.75;;;8.60;99.90;;;;;;4966508;28;20062;-79
2022/12/28 13:13:04;;;;;;;8.40;5.53;;;8.60;99.90;;;;;;4962763;28;20583;-80
2022/12/28 13:15:30;;;;;;;7.55;6.07;;;8.60;99.90;;;;;;4950394;28;20054;-77
2022/12/28 13:18:04;;;;;;;8.27;6.00;;;8.50;99.90;;;;;;4966674;28;20043;-77
2022/12/28 13:20:29;;;;;;;11.15;5.35;;;8.50;99.90;;;;;;4967182;28;20058;-78
2022/12/28 13:22:55;;;;;;;10.13;5.35;;;8.50;99.90;;;;;;4982221;28;20035;-78
2022/12/28 13:25:32;;;;;;;6.47;5.00;;;8.50;99.90;;;;;;4967602;28;20129;-78
2022/12/28 13:28:00;;;;;;;6.45;4.72;;;8.50;99.90;;;;;;4966534;28;20549;-78
2022/12/28 13:30:26;;;;;;;6.72;5.50;;;8.50;99.90;;;;;;4962354;28;20043;-76
2022/12/28 13:32:58;;;;;;;8.35;4.63;;;8.50;99.90;;;;;;4948165;29;20402;-78
2022/12/28 13:35:29;;;;;;;3.90;3.47;;;8.50;99.90;;;;;;4946839;29;20043;-76